sensor_id;sensor_type;location;lat;lon;timestamp;temperature;humidity
56498;DHT22;51790;45.558;12.076;2022-08-05T05:55:36;25.80;67.30
56498;DHT22;51790;45.558;12.076;2022-08-05T06:01:38;25.70;66.70
56498;DHT22;51790;45.558;12.076;2022-08-05T07:44:22;29.00;56.90
56498;DHT22;51790;45.558;12.076;2022-08-05T07:56:27;29.40;56.20
56498;DHT22;51790;45.558;12.076;2022-08-05T08:02:29;29.70;54.70
56498;DHT22;51790;45.558;12.076;2022-08-05T08:08:30;29.60;54.00
56498;DHT22;51790;45.558;12.076;2022-08-05T08:14:32;30.10;54.10
56498;DHT22;51790;45.558;12.076;2022-08-05T08:20:33;30.10;53.70
56498;DHT22;51790;45.558;12.076;2022-08-05T08:26:35;30.40;52.60
56498;DHT22;51790;45.558;12.076;2022-08-05T08:32:37;30.40;51.80
56498;DHT22;51790;45.558;12.076;2022-08-05T08:38:38;30.60;52.70
56498;DHT22;51790;45.558;12.076;2022-08-05T08:44:42;30.60;52.70
56498;DHT22;51790;45.558;12.076;2022-08-05T09:02:47;30.80;52.10
56498;DHT22;51790;45.558;12.076;2022-08-05T09:08:49;31.10;50.00
56498;DHT22;51790;45.558;12.076;2022-08-05T09:14:50;30.90;51.40
56498;DHT22;51790;45.558;12.076;2022-08-05T09:20:51;31.40;46.80
56498;DHT22;51790;45.558;12.076;2022-08-05T09:26:55;31.60;49.30
56498;DHT22;51790;45.558;12.076;2022-08-05T09:32:59;31.20;50.10
56498;DHT22;51790;45.558;12.076;2022-08-05T09:39:03;31.20;50.10
56498;DHT22;51790;45.558;12.076;2022-08-05T09:45:05;31.30;48.40
56498;DHT22;51790;45.558;12.076;2022-08-05T09:51:08;31.30;48.30
56498;DHT22;51790;45.558;12.076;2022-08-05T09:57:10;31.50;49.10
56498;DHT22;51790;45.558;12.076;2022-08-05T10:03:20;31.40;49.20
56498;DHT22;51790;45.558;12.076;2022-08-05T10:09:22;31.40;48.90
56498;DHT22;51790;45.558;12.076;2022-08-05T10:15:24;31.50;47.50
56498;DHT22;51790;45.558;12.076;2022-08-05T10:21:26;31.40;48.70
56498;DHT22;51790;45.558;12.076;2022-08-05T10:27:28;31.40;48.60
56498;DHT22;51790;45.558;12.076;2022-08-05T10:33:30;32.10;47.20
56498;DHT22;51790;45.558;12.076;2022-08-05T10:39:32;32.00;45.40
56498;DHT22;51790;45.558;12.076;2022-08-05T10:45:35;31.80;47.10
56498;DHT22;51790;45.558;12.076;2022-08-05T10:51:47;31.40;47.70
56498;DHT22;51790;45.558;12.076;2022-08-05T10:57:48;31.70;47.50
56498;DHT22;51790;45.558;12.076;2022-08-05T11:10:11;32.30;45.60
56498;DHT22;51790;45.558;12.076;2022-08-05T11:28:44;32.40;43.80
56498;DHT22;51790;45.558;12.076;2022-08-05T11:52:50;31.80;45.70
56498;DHT22;51790;45.558;12.076;2022-08-05T11:58:51;32.10;44.70
56498;DHT22;51790;45.558;12.076;2022-08-05T12:16:56;34.10;38.50
56498;DHT22;51790;45.558;12.076;2022-08-05T12:35:03;34.60;37.50
56498;DHT22;51790;45.558;12.076;2022-08-05T12:41:08;34.70;36.00
56498;DHT22;51790;45.558;12.076;2022-08-05T12:47:11;33.60;38.90
56498;DHT22;51790;45.558;12.076;2022-08-05T12:53:14;33.60;39.00
56498;DHT22;51790;45.558;12.076;2022-08-05T13:17:22;33.90;39.40
56498;DHT22;51790;45.558;12.076;2022-08-05T13:29:25;34.70;37.00
56498;DHT22;51790;45.558;12.076;2022-08-05T13:35:26;34.60;38.20
56498;DHT22;51790;45.558;12.076;2022-08-05T14:05:35;35.30;37.50
56498;DHT22;51790;45.558;12.076;2022-08-05T14:11:36;34.80;40.30
56498;DHT22;51790;45.558;12.076;2022-08-05T14:17:41;35.20;40.20
56498;DHT22;51790;45.558;12.076;2022-08-05T14:23:42;35.20;40.80
56498;DHT22;51790;45.558;12.076;2022-08-05T14:29:43;34.60;41.70
56498;DHT22;51790;45.558;12.076;2022-08-05T14:41:46;35.30;41.60
56498;DHT22;51790;45.558;12.076;2022-08-05T14:53:49;35.10;42.10
56498;DHT22;51790;45.558;12.076;2022-08-05T14:59:50;34.70;42.30
56498;DHT22;51790;45.558;12.076;2022-08-05T15:05:52;34.70;42.60
56498;DHT22;51790;45.558;12.076;2022-08-05T15:17:56;34.30;43.10
56498;DHT22;51790;45.558;12.076;2022-08-05T15:23:58;34.40;43.10
56498;DHT22;51790;45.558;12.076;2022-08-05T15:30:00;34.70;42.50
56498;DHT22;51790;45.558;12.076;2022-08-05T15:36:04;34.30;43.30
56498;DHT22;51790;45.558;12.076;2022-08-05T15:42:06;34.70;42.50
56498;DHT22;51790;45.558;12.076;2022-08-05T15:48:07;34.60;42.90
56498;DHT22;51790;45.558;12.076;2022-08-05T15:54:09;34.70;42.50
56498;DHT22;51790;45.558;12.076;2022-08-05T16:00:11;34.60;42.70
56498;DHT22;51790;45.558;12.076;2022-08-05T16:06:12;34.40;43.10
56498;DHT22;51790;45.558;12.076;2022-08-05T16:12:14;34.20;43.30
56498;DHT22;51790;45.558;12.076;2022-08-05T16:18:16;34.10;43.40
56498;DHT22;51790;45.558;12.076;2022-08-05T16:24:17;33.90;41.60
56498;DHT22;51790;45.558;12.076;2022-08-05T16:30:19;34.10;42.00
56498;DHT22;51790;45.558;12.076;2022-08-05T16:36:20;33.90;44.80
56498;DHT22;51790;45.558;12.076;2022-08-05T16:42:21;33.80;44.20
56498;DHT22;51790;45.558;12.076;2022-08-05T16:54:24;33.70;46.20
56498;DHT22;51790;45.558;12.076;2022-08-05T17:24:33;33.70;43.90
56498;DHT22;51790;45.558;12.076;2022-08-05T17:30:35;33.80;43.90
56498;DHT22;51790;45.558;12.076;2022-08-05T17:36:36;33.90;45.10
56498;DHT22;51790;45.558;12.076;2022-08-05T17:42:37;33.90;45.00
56498;DHT22;51790;45.558;12.076;2022-08-05T17:48:38;34.10;44.70
56498;DHT22;51790;45.558;12.076;2022-08-05T17:54:40;34.10;42.20
56498;DHT22;51790;45.558;12.076;2022-08-05T18:00:42;33.80;42.00
56498;DHT22;51790;45.558;12.076;2022-08-05T18:06:44;33.70;45.50
56498;DHT22;51790;45.558;12.076;2022-08-05T18:12:46;33.10;45.50
56498;DHT22;51790;45.558;12.076;2022-08-05T18:18:47;32.50;46.70
56498;DHT22;51790;45.558;12.076;2022-08-05T18:24:48;32.20;46.80
56498;DHT22;51790;45.558;12.076;2022-08-05T18:30:50;32.00;48.10
56498;DHT22;51790;45.558;12.076;2022-08-05T18:36:52;31.80;44.90
56498;DHT22;51790;45.558;12.076;2022-08-05T18:42:54;31.80;46.00
56498;DHT22;51790;45.558;12.076;2022-08-05T18:48:56;31.60;46.50
56498;DHT22;51790;45.558;12.076;2022-08-05T18:55:18;31.60;47.60
56498;DHT22;51790;45.558;12.076;2022-08-05T19:01:20;31.40;45.70
56498;DHT22;51790;45.558;12.076;2022-08-05T19:07:21;31.30;48.70
56498;DHT22;51790;45.558;12.076;2022-08-05T19:13:23;31.30;48.20
56498;DHT22;51790;45.558;12.076;2022-08-05T19:19:24;31.20;46.00
56498;DHT22;51790;45.558;12.076;2022-08-05T19:25:25;31.10;47.00
56498;DHT22;51790;45.558;12.076;2022-08-05T19:31:27;31.00;45.90
56498;DHT22;51790;45.558;12.076;2022-08-05T19:37:28;30.90;46.00
56498;DHT22;51790;45.558;12.076;2022-08-05T19:43:30;30.80;46.80
56498;DHT22;51790;45.558;12.076;2022-08-05T19:49:31;30.70;47.30
56498;DHT22;51790;45.558;12.076;2022-08-05T19:55:32;30.60;47.50
56498;DHT22;51790;45.558;12.076;2022-08-05T20:25:40;29.10;51.40
56498;DHT22;51790;45.558;12.076;2022-08-05T20:31:41;29.30;51.20
56498;DHT22;51790;45.558;12.076;2022-08-05T20:37:43;29.40;51.10
56498;DHT22;51790;45.558;12.076;2022-08-05T20:43:44;29.50;51.30
56498;DHT22;51790;45.558;12.076;2022-08-05T20:49:45;29.30;51.10
56498;DHT22;51790;45.558;12.076;2022-08-05T20:55:47;29.40;50.80
56498;DHT22;51790;45.558;12.076;2022-08-05T21:01:48;29.20;51.10
56498;DHT22;51790;45.558;12.076;2022-08-05T21:07:51;29.10;51.60
56498;DHT22;51790;45.558;12.076;2022-08-05T21:13:53;29.10;51.90
56498;DHT22;51790;45.558;12.076;2022-08-05T21:19:54;28.80;53.20
56498;DHT22;51790;45.558;12.076;2022-08-05T21:25:56;28.60;53.70
56498;DHT22;51790;45.558;12.076;2022-08-05T21:31:57;28.70;53.60
56498;DHT22;51790;45.558;12.076;2022-08-05T21:37:58;28.60;54.20
56498;DHT22;51790;45.558;12.076;2022-08-05T21:44:00;28.60;53.80
56498;DHT22;51790;45.558;12.076;2022-08-05T21:50:02;28.70;54.20
56498;DHT22;51790;45.558;12.076;2022-08-05T21:56:03;28.60;55.10
56498;DHT22;51790;45.558;12.076;2022-08-05T22:02:05;28.50;55.10
56498;DHT22;51790;45.558;12.076;2022-08-05T22:08:06;28.50;55.10
56498;DHT22;51790;45.558;12.076;2022-08-05T22:14:07;28.50;55.80
56498;DHT22;51790;45.558;12.076;2022-08-05T22:20:10;28.60;54.70
56498;DHT22;51790;45.558;12.076;2022-08-05T22:26:12;28.60;54.50
56498;DHT22;51790;45.558;12.076;2022-08-05T22:32:32;28.40;55.30
56498;DHT22;51790;45.558;12.076;2022-08-05T22:38:33;28.20;56.50
56498;DHT22;51790;45.558;12.076;2022-08-05T22:44:35;28.20;56.70
56498;DHT22;51790;45.558;12.076;2022-08-05T22:50:36;28.00;57.20
56498;DHT22;51790;45.558;12.076;2022-08-05T22:56:37;27.90;57.50
56498;DHT22;51790;45.558;12.076;2022-08-05T23:02:39;27.70;58.50
56498;DHT22;51790;45.558;12.076;2022-08-05T23:08:41;27.50;59.10
56498;DHT22;51790;45.558;12.076;2022-08-05T23:14:42;27.20;60.00
56498;DHT22;51790;45.558;12.076;2022-08-05T23:20:44;27.20;60.00
56498;DHT22;51790;45.558;12.076;2022-08-05T23:26:45;27.00;60.20
56498;DHT22;51790;45.558;12.076;2022-08-05T23:32:46;26.70;60.90
56498;DHT22;51790;45.558;12.076;2022-08-05T23:38:48;26.70;60.80
56498;DHT22;51790;45.558;12.076;2022-08-05T23:44:49;26.80;60.60
56498;DHT22;51790;45.558;12.076;2022-08-05T23:50:50;27.20;59.80
56498;DHT22;51790;45.558;12.076;2022-08-05T23:56:52;27.10;59.50
